Latest Coastal Weather Observations for Townsville

IDQ60701

Issued at 7:55 pm EST Friday 1 August 2014 (issued every 10 minutes, with the page automatically refreshed every 10 minutes)

About coastal observations | Map of coastal stations | Coastal observations for QLD | Marine services | Other Formats
Station Details ID: 032040 Name: TOWNSVILLE AERO Lat: -19.25 Lon: 146.77 Height: 4.34 m
Data from the previous 72 hours. | See also: Recent months at Townsville
Date/Time
EST
Temp

°C
Wind Pressure Rain
since 9am
mm
Weather Cloud Vis
km
Sea
Height
m
Swell
Dir
 
Speed
knots
Gust
knots
hPa Trend Height
m
Period
s
Dir
01/07:30pm 21.4 N 5 7 1016.8 - 0.0 - Mostly clear 10 - - - -
01/07:00pm 21.7 N 6 8 1016.4 - 0.0 - Mostly clear 10 - - - -
01/06:30pm 21.6 N 5 7 1016.0 - 0.0 - Mostly clear 10 - - - -
01/06:00pm 22.0 N 7 8 1015.5 F 0.0 Smoke Mostly clear 30 - - - -
01/05:30pm 23.3 N 8 10 1015.2 - 0.0 - Mostly clear 10 - - - -
01/05:00pm 24.2 N 7 10 1014.9 - 0.0 - Mostly clear 10 - - - -
01/04:30pm 24.6 ENE 8 11 1014.8 - 0.0 - Mostly clear 10 - - - -
01/04:00pm 25.1 ENE 8 10 1014.5 - 0.0 - Mostly clear 10 - - - -
01/03:30pm 25.2 ENE 9 13 1014.8 - 0.0 - Mostly clear 10 - - - -
01/03:00pm 26.0 NNE 8 14 1015.0 R 0.0 Smoke Mostly clear 35 - - - -
01/02:30pm 26.1 NE 9 12 1015.2 - 0.0 - Mostly clear 10 - - - -
01/02:00pm 25.7 NE 11 14 1015.5 - 0.0 - Mostly clear 10 - - - -
01/01:30pm 25.6 NNE 9 11 1015.9 - 0.0 - Mostly clear 10 - - - -
01/01:00pm 25.9 NNE 9 13 1016.4 - 0.0 - Mostly clear 10 - - - -
01/12:30pm 25.8 NE 8 12 1016.9 - 0.0 - Mostly clear 10 - - - -
01/12:00pm 25.6 NE 8 11 1017.3 R 0.0 Smoke Mostly clear 40 - - - -
01/11:30am 25.6 NE 8 11 1017.7 - 0.0 - Mostly clear 10 - - - -
01/11:00am 25.8 NNE 6 8 1017.9 - 0.0 - Mostly clear 10 - - - -
01/10:30am 24.9 ENE 6 9 1018.2 - 0.0 - Mostly clear 10 - - - -
01/10:00am 24.1 S 4 6 1018.5 - 0.0 - Mostly clear 10 - - - -
01/09:30am 22.4 SE 5 7 1018.5 - 0.0 - Mostly clear 10 - - - -
01/09:00am 22.7 S 5 6 1018.4 F 0.0 HAZE Mostly clear 10 - - - -
01/08:30am 20.9 S 4 5 1018.2 - 0.0 - Mostly clear 10 - - - -
01/08:00am 18.5 CALM 0 0 1018.1 - 0.0 - Mostly clear 10 - - - -
01/07:30am 16.2 NW 1 3 1017.8 - 0.0 Shallow fog Mostly clear 10 - - - -
01/07:22am 15.6 NW 1 5 1017.8 - 0.0 Fog patches Mostly clear 2 - - - -
01/07:12am 15.3 CALM 0 - 1017.5 - 0.0 - - 9 - - - -
01/07:00am 14.9 CALM 0 - 1017.5 - 0.0 Fog patches Mostly clear 0.9 - - - -
01/06:51am 15.1 CALM 0 - 1017.4 - 0.0 Fog Mostly clear 0.5 - - - -
01/06:30am 15.1 CALM 0 0 1017.2 - 0.0 Fog patches Mostly clear 2 - - - -
01/06:11am 14.7 W 3 6 1017.1 - 0.0 Fog Mostly clear 0.9 - - - -
01/06:00am 14.9 CALM 0 - 1016.9 R 0.0 Fog patches Mostly clear 2 - - - -
01/05:30am 14.2 CALM 0 - 1016.6 - 0.0 - - 1 - - - -
01/05:19am 14.4 CALM 0 - 1016.5 - 0.0 - - 5 - - - -
01/05:00am 16.5 CALM 0 0 1016.3 - 0.0 - - 10 - - - -
01/04:54am 16.0 CALM 0 0 1016.2 - 0.0 - - 10 - - - -
01/04:40am 15.8 CALM 0 - 1016.1 - 0.0 - - 0.9 - - - -
01/04:30am 16.1 CALM 0 - 1016.0 - 0.0 - - 0.4 - - - -
01/04:18am 15.7 CALM 0 - 1016.1 - 0.0 - - 0.9 - - - -
01/04:12am 15.8 CALM 0 - 1016.1 - 0.0 - - 0.9 - - - -
01/04:00am 15.7 CALM 0 - 1016.1 - 0.0 - - 0.5 - - - -
01/03:50am 15.7 CALM 0 - 1016.2 - 0.0 - - 1 - - - -
01/03:45am 15.7 CALM 0 0 1016.2 - 0.0 - - 6 - - - -
01/03:42am 15.8 CALM 0 0 1016.2 - 0.0 - - 10 - - - -
01/03:30am 15.6 CALM 0 - 1016.2 - 0.0 - - 3 - - - -
01/03:22am 15.8 CALM 0 - 1016.2 - 0.0 - - 4 - - - -
01/03:00am 16.2 CALM 0 0 1016.4 - 0.0 - - 10 - - - -
01/02:30am 15.9 CALM 0 0 1016.7 - 0.0 - - 8 - - - -
01/02:22am 15.7 CALM 0 0 1016.8 - 0.0 - - 10 - - - -
01/02:05am 16.4 CALM 0 0 1016.7 - 0.0 - - 5 - - - -
01/02:00am 16.5 CALM 0 0 1016.7 - 0.0 - - 10 - - - -
01/01:30am 17.6 CALM 0 0 1017.1 - 0.0 - - 10 - - - -
01/01:00am 17.5 CALM 0 0 1017.3 - 0.0 - - 10 - - - -
01/12:30am 19.2 CALM 0 0 1017.5 - 0.0 - Partly cloudy 10 - - - -
01/12:00am 19.2 S 4 5 1017.5 - 0.0 - Mostly clear 10 - - - -
 
Date/Time
EST
Temp

°C
Wind Pressure Rain
since 9am
mm
Weather Cloud Vis
km
Sea
Height
m
Swell
Dir
 
Speed
knots
Gust
knots
hPa Trend Height
m
Period
s
Dir
31/11:30pm 19.2 CALM 0 0 1017.6 - 0.0 - Cloudy 10 - - - -
31/11:00pm 19.2 S 1 4 1017.7 - 0.0 - Partly cloudy 10 - - - -
31/10:30pm 19.5 S 4 5 1017.8 - 0.0 - - 10 - - - -
31/10:00pm 18.8 ENE 1 4 1017.8 - 0.0 - Partly cloudy 10 - - - -
31/09:30pm 19.9 E 5 6 1017.9 - 0.0 - Partly cloudy 10 - - - -
31/09:00pm 20.2 E 5 7 1017.8 - 0.0 - - 10 - - - -
31/08:30pm 20.2 ENE 5 7 1017.8 - 0.0 - - 10 - - - -
31/08:00pm 20.7 ENE 6 8 1017.6 - 0.0 - - 10 - - - -
31/07:30pm 21.0 ENE 8 10 1017.2 - 0.0 - - 10 - - - -
31/07:00pm 21.3 ENE 8 11 1016.8 - 0.0 - - 10 - - - -
31/06:30pm 21.2 ENE 8 11 1016.3 - 0.0 - - 10 - - - -
31/06:00pm 21.5 ENE 8 11 1016.1 - 0.0 - - 10 - - - -
31/05:30pm 22.3 NE 10 12 1016.1 - 0.0 - Mostly clear 10 - - - -
31/05:00pm 22.9 ENE 11 15 1015.9 - 0.0 - Mostly clear 10 - - - -
31/04:30pm 23.3 ENE 13 16 1015.8 - 0.0 - Mostly clear 10 - - - -
31/04:00pm 23.6 ENE 14 17 1015.6 - 0.0 - Mostly clear 10 - - - -
31/03:30pm 24.6 ENE 15 17 1015.6 - 0.0 - Mostly clear 10 - - - -
31/03:00pm 24.3 NE 12 15 1015.7 F 0.0 Smoke Partly cloudy 35 - - - -
31/02:30pm 24.7 ENE 14 17 1015.9 - 0.0 - Mostly clear 10 - - - -
31/02:00pm 24.9 NE 13 15 1016.2 - 0.0 - Mostly clear 10 - - - -
31/01:30pm 25.9 NE 11 14 1016.6 - 0.0 - Mostly clear 10 - - - -
31/01:00pm 25.2 NE 11 15 1017.1 - 0.0 - Partly cloudy 10 - - - -
31/12:30pm 24.5 NE 11 14 1017.7 - 0.0 - Partly cloudy 10 - - - -
31/12:00pm 25.1 NE 12 15 1018.2 F 0.0 Smoke Partly cloudy 35 - - - -
31/11:30am 24.8 E 11 14 1018.7 - 0.0 - Partly cloudy 10 - - - -
31/11:00am 23.9 SE 7 11 1019.2 - 0.0 - Partly cloudy 10 - - - -
31/10:30am 23.7 ESE 7 10 1019.6 - 0.0 - Mostly clear 10 - - - -
31/10:00am 22.7 SE 8 11 1019.8 - 0.0 - Mostly clear 10 - - - -
31/09:30am 21.9 SSE 3 7 1020.0 - 0.0 - Mostly clear 10 - - - -
31/09:00am 20.8 SSE 3 6 1019.8 F 0.0 Fine Mostly cloudy 20 - - - -
31/08:30am 19.8 SSE 4 5 1019.6 - 0.0 - Mostly clear 10 - - - -
31/08:00am 18.3 SSE 4 5 1019.3 - 0.0 - Mostly clear 10 - - - -
31/07:30am 16.3 CALM 0 0 1019.1 - 0.0 - Mostly clear 10 - - - -
31/07:00am 15.9 CALM 0 0 1018.8 - 0.0 Shallow fog Mostly clear 10 - - - -
31/06:30am 15.7 CALM 0 0 1018.7 - 0.0 Fog patches Mostly clear 1 - - - -
31/06:00am 14.7 CALM 0 0 1018.4 F 0.0 Shallow fog Partly cloudy 15 - - - -
31/05:30am 15.0 WNW 4 4 1018.3 - 0.0 - Partly cloudy 10 - - - -
31/05:00am 15.1 S 3 5 1018.1 - 0.0 - Partly cloudy 10 - - - -
31/04:30am 15.2 CALM 0 0 1018.0 - 0.0 - - 10 - - - -
31/04:00am 15.1 SSE 4 5 1018.1 - 0.0 - - 10 - - - -
31/03:30am 17.4 SSE 5 7 1018.3 - 0.0 - - 10 - - - -
31/03:00am 17.7 SSE 5 7 1018.4 - 0.0 - - 10 - - - -
31/02:30am 18.1 SE 5 7 1018.4 - 0.0 - - 10 - - - -
31/02:00am 18.1 SE 6 7 1018.6 - 0.0 - - 10 - - - -
31/01:30am 18.3 SE 7 8 1018.8 - 0.0 - - 10 - - - -
31/01:00am 18.3 SE 6 7 1019.0 - 0.0 - - 10 - - - -
31/12:30am 18.7 SE 5 7 1019.2 - 0.0 - - 10 - - - -
31/12:00am 19.0 SE 7 8 1019.4 - 0.0 - Mostly clear 10 - - - -
 
Date/Time
EST
Temp

°C
Wind Pressure Rain
since 9am
mm
Weather Cloud Vis
km
Sea
Height
m
Swell
Dir
 
Speed
knots
Gust
knots
hPa Trend Height
m
Period
s
Dir
30/11:30pm 19.0 SE 6 6 1019.3 - 0.0 - Partly cloudy 10 - - - -
30/11:00pm 19.3 SE 5 7 1019.5 - 0.0 - Partly cloudy 10 - - - -
30/10:30pm 19.3 SE 6 7 1019.6 - 0.0 - Partly cloudy 10 - - - -
30/10:00pm 19.1 SE 5 6 1019.8 - 0.0 - Partly cloudy 10 - - - -
30/09:30pm 19.4 SE 6 8 1019.7 - 0.0 - - 10 - - - -
30/09:00pm 19.6 SE 5 6 1019.6 - 0.0 - Partly cloudy 10 - - - -
30/08:30pm 19.1 SE 5 6 1019.4 - 0.0 - Partly cloudy 10 - - - -
30/08:00pm 20.0 ESE 6 7 1019.2 - 0.0 - - 10 - - - -
30/07:30pm 20.4 E 6 8 1019.0 - 0.0 - - 10 - - - -
30/07:00pm 20.9 E 8 11 1018.7 - 0.0 - - 10 - - - -
30/06:30pm 21.1 ENE 8 13 1018.3 - 0.0 - - 10 - - - -
30/06:00pm 21.5 ENE 10 13 1018.1 - 0.0 - Mostly clear 10 - - - -
30/05:30pm 22.5 ENE 11 14 1017.8 - 0.0 - Mostly clear 10 - - - -
30/05:00pm 23.1 ENE 12 15 1017.7 - 0.0 - Mostly clear 10 - - - -
30/04:30pm 23.8 ENE 14 17 1017.6 - 0.0 - Mostly clear 10 - - - -
30/04:00pm 23.7 NE 14 17 1017.4 - 0.0 - Mostly clear 10 - - - -
30/03:30pm 23.8 ENE 13 16 1017.3 - 0.0 - Mostly clear 10 - - - -
30/03:00pm 24.3 NE 14 17 1017.4 F 0.0 Haze Mostly cloudy 45 - - - -
30/02:30pm 24.8 NE 14 17 1017.6 - 0.0 - Mostly clear 10 - - - -
30/02:00pm 25.8 NE 12 15 1017.9 - 0.0 - Mostly clear 10 - - - -
30/01:30pm 25.2 ENE 15 17 1018.2 - 0.0 - Mostly clear 10 - - - -
30/01:00pm 24.7 ENE 13 16 1018.9 - 0.0 - Mostly clear 10 - - - -
30/12:30pm 25.2 E 14 17 1019.3 - 0.0 - Mostly clear 10 - - - -
30/12:00pm 24.5 ENE 13 17 1020.0 F 0.0 Haze Mostly cloudy 45 - - - -
30/11:30am 24.7 ENE 15 17 1020.4 - 0.0 - Mostly clear 10 - - - -
30/11:00am 22.7 E 12 15 1021.0 - 0.0 - Mostly clear 10 - - - -
30/10:30am 22.4 ESE 13 17 1021.3 - 0.0 - Mostly clear 10 - - - -
30/10:00am 23.4 ESE 12 16 1021.4 - 0.0 - Mostly clear 10 - - - -
30/09:30am 22.4 SE 11 15 1021.5 - 0.0 - Mostly clear 10 - - - -
30/09:00am 21.3 SSE 8 12 1021.4 F 0.0 Smoke Mostly cloudy 35 - - - -
30/08:30am 19.8 ESE 2 4 1021.3 - 0.0 - Mostly clear 10 - - - -
30/08:00am 17.7 SSE 5 5 1021.2 - 0.0 - Mostly clear 10 - - - -
30/07:30am 16.6 SSE 6 8 1020.8 - 0.0 - Mostly clear 10 - - - -
30/07:00am 15.1 SSE 6 7 1020.6 - 0.0 - Mostly clear 10 - - - -
30/06:30am 14.4 N 3 5 1020.4 - 0.0 - Mostly clear 10 - - - -
30/06:00am 14.4 CALM 0 0 1020.1 R 0.0 Fine Partly cloudy 20 - - - -
30/05:30am 15.5 CALM 0 3 1019.8 - 0.0 - - 10 - - - -
30/05:00am 15.8 SE 5 5 1019.5 - 0.0 - - 10 - - - -
30/04:30am 16.7 SSE 7 8 1019.2 - 0.0 - Partly cloudy 10 - - - -
30/04:00am 15.4 CALM 0 0 1019.3 - 0.0 - Partly cloudy 10 - - - -
30/03:30am 16.0 SSE 5 5 1019.2 - 0.0 - - 10 - - - -
30/03:00am 15.8 W 4 4 1019.4 - 0.0 - - 10 - - - -
30/02:30am 15.8 CALM 0 0 1019.6 - 0.0 - - 10 - - - -
30/02:00am 15.2 W 4 4 1019.9 - 0.0 - - 10 - - - -
30/01:30am 15.3 W 2 4 1020.0 - 0.0 - - 10 - - - -
30/01:00am 15.3 WNW 5 6 1020.2 - 0.0 - - 10 - - - -
30/12:30am 16.1 CALM 0 0 1020.2 - 0.0 - - 10 - - - -
30/12:00am 18.0 S 1 5 1020.3 - 0.0 - - 10 - - - -
 
Date/Time
EST
Temp

°C
Wind Pressure Rain
since 9am
mm
Weather Cloud Vis
km
Sea
Height
m
Swell
Dir
 
Speed
knots
Gust
knots
hPa Trend Height
m
Period
s
Dir
29/11:30pm 18.1 CALM 0 0 1020.4 - 0.0 - - 10 - - - -
29/11:00pm 17.6 CALM 0 0 1020.7 - 0.0 - - 10 - - - -
29/10:30pm 17.3 CALM 0 0 1021.0 - 0.0 - - 10 - - - -
29/10:00pm 18.4 S 5 5 1021.1 - 0.0 - - 10 - - - -
29/09:30pm 19.4 S 6 6 1021.0 - 0.0 - - 10 - - - -
29/09:00pm 20.0 E 5 7 1020.7 - 0.0 - - 10 - - - -
29/08:30pm 20.3 E 6 8 1020.5 - 0.0 - - 10 - - - -
29/08:00pm 20.3 E 5 6 1020.3 - 0.0 - - 10 - - - -

Other Formats:

Comma delimited format used in spreadsheet applications
http://www.bom.gov.au/fwo/IDQ60701/IDQ60701.94294.axf

JavaScript Object Notation format (JSON) in row-major order
http://www.bom.gov.au/fwo/IDQ60701/IDQ60701.94294.json